createdAt,value
2022-12-14T00:01:41.075Z,20.23
2022-12-14T00:04:08.644Z,22.30
2022-12-14T00:06:36.246Z,21.05
2022-12-14T00:09:05.650Z,20.40
2022-12-14T00:11:33.735Z,21.65
2022-12-14T00:14:04.967Z,19.05
2022-12-14T00:16:34.498Z,19.45
2022-12-14T00:19:03.076Z,18.85
2022-12-14T00:21:30.907Z,20.42
2022-12-14T00:23:59.724Z,18.60
2022-12-14T00:26:29.193Z,19.50
2022-12-14T00:28:57.088Z,17.63
2022-12-14T00:31:26.762Z,17.70
2022-12-14T00:33:55.376Z,16.48
2022-12-14T00:36:24.301Z,21.30
2022-12-14T00:38:52.021Z,24.10
2022-12-14T00:41:20.357Z,19.52
2022-12-14T00:43:49.185Z,21.02
2022-12-14T00:46:17.326Z,21.87
2022-12-14T00:48:46.462Z,19.60
2022-12-14T00:51:14.788Z,18.70
2022-12-14T00:53:42.912Z,20.85
2022-12-14T00:56:11.500Z,19.85
2022-12-14T00:58:39.053Z,21.83
2022-12-14T01:01:08.861Z,22.45
2022-12-14T01:03:36.661Z,21.88
2022-12-14T01:06:05.756Z,20.08
2022-12-14T01:08:36.365Z,22.63
2022-12-14T01:11:06.285Z,24.08
2022-12-14T01:13:34.083Z,19.23
2022-12-14T01:16:06.935Z,22.75
2022-12-14T01:18:35.899Z,23.20
2022-12-14T01:21:16.722Z,23.33
2022-12-14T01:23:45.209Z,20.33
2022-12-14T01:26:13.274Z,20.83
2022-12-14T01:28:41.068Z,19.77
2022-12-14T01:31:09.914Z,20.30
2022-12-14T01:33:37.761Z,20.08
2022-12-14T01:36:07.225Z,22.73
2022-12-14T01:38:36.477Z,19.80
2022-12-14T01:41:05.147Z,20.80
2022-12-14T01:43:50.107Z,21.35
2022-12-14T01:46:21.405Z,23.05
2022-12-14T01:48:51.442Z,20.92
2022-12-14T01:51:19.259Z,19.33
2022-12-14T01:53:48.505Z,20.48
2022-12-14T01:56:17.856Z,22.33
2022-12-14T01:58:45.427Z,20.88
2022-12-14T02:01:13.119Z,20.25
2022-12-14T02:03:46.024Z,22.75
2022-12-14T02:06:18.603Z,22.55
2022-12-14T02:08:51.691Z,19.75
2022-12-14T02:11:29.074Z,20.42
2022-12-14T02:13:56.569Z,20.90
2022-12-14T02:16:24.439Z,21.27
2022-12-14T02:18:52.023Z,21.27
2022-12-14T02:21:24.994Z,21.88
2022-12-14T02:24:39.033Z,20.67
2022-12-14T02:27:16.272Z,22.13
2022-12-14T02:29:53.968Z,22.30
2022-12-14T02:32:43.207Z,24.20
2022-12-14T02:35:18.639Z,25.35
2022-12-14T02:37:53.630Z,24.43
2022-12-14T02:40:29.375Z,25.15
2022-12-14T02:43:07.844Z,24.25
2022-12-14T02:45:43.287Z,24.42
2022-12-14T02:48:17.224Z,24.83
2022-12-14T02:50:54.752Z,28.67
2022-12-14T02:53:28.757Z,23.48
2022-12-14T02:56:02.039Z,27.23
2022-12-14T02:58:34.480Z,23.80
2022-12-14T03:01:04.876Z,26.50
2022-12-14T03:03:32.554Z,25.92
2022-12-14T03:06:01.964Z,26.05
2022-12-14T03:08:34.207Z,29.83
2022-12-14T03:11:04.967Z,24.80
2022-12-14T03:13:37.626Z,25.15
2022-12-14T03:16:13.849Z,25.33
2022-12-14T03:18:47.513Z,25.55
2022-12-14T03:21:19.869Z,24.73
2022-12-14T03:23:50.723Z,28.33
2022-12-14T03:26:23.345Z,22.85
2022-12-14T03:28:54.240Z,23.30
2022-12-14T03:31:27.483Z,25.77
2022-12-14T03:33:57.965Z,24.73
2022-12-14T03:36:29.853Z,25.63
2022-12-14T03:39:01.378Z,31.00
2022-12-14T03:41:34.299Z,27.67
2022-12-14T03:44:14.325Z,25.40
2022-12-14T03:46:52.774Z,27.40
2022-12-14T03:49:25.232Z,27.35
2022-12-14T03:52:01.926Z,22.50
2022-12-14T03:54:39.430Z,25.50
2022-12-14T03:57:15.922Z,26.02
2022-12-14T03:59:53.754Z,25.83
2022-12-14T04:02:27.832Z,29.05
2022-12-14T04:05:04.068Z,25.48
2022-12-14T04:07:38.351Z,28.53
2022-12-14T04:10:32.789Z,27.23
2022-12-14T04:13:24.063Z,25.42
2022-12-14T04:16:18.069Z,24.45
2022-12-14T04:19:00.963Z,25.40
2022-12-14T04:21:37.994Z,25.70
2022-12-14T04:24:31.056Z,23.83
2022-12-14T04:27:03.231Z,24.75
2022-12-14T04:29:52.811Z,23.60
2022-12-14T04:32:26.158Z,30.85
2022-12-14T04:35:02.565Z,32.10
2022-12-14T04:37:31.569Z,27.52
2022-12-14T04:40:05.380Z,26.42
2022-12-14T04:42:36.735Z,25.45
2022-12-14T04:45:09.267Z,28.90
2022-12-14T04:47:42.023Z,25.70
2022-12-14T04:52:46.760Z,24.20
2022-12-14T04:57:51.733Z,26.70
2022-12-14T05:00:19.503Z,26.38
2022-12-14T05:03:05.555Z,24.90
2022-12-14T05:05:39.664Z,25.48
2022-12-14T05:08:12.454Z,27.13
2022-12-14T05:13:15.534Z,24.15
2022-12-14T05:15:46.425Z,27.55
2022-12-14T05:18:14.814Z,27.90
2022-12-14T05:20:43.787Z,26.70
2022-12-14T05:23:11.341Z,23.63
2022-12-14T05:25:38.866Z,26.50
2022-12-14T05:28:08.434Z,26.45
2022-12-14T05:30:37.012Z,27.00
2022-12-14T05:33:05.405Z,25.80
2022-12-14T05:35:33.197Z,26.33
2022-12-14T05:38:02.195Z,27.02
2022-12-14T05:40:29.810Z,27.77
2022-12-14T05:43:05.764Z,26.88
2022-12-14T05:45:33.304Z,28.45
2022-12-14T05:48:01.052Z,28.85
2022-12-14T05:50:29.027Z,27.63
2022-12-14T05:52:56.826Z,26.10
2022-12-14T05:55:25.840Z,27.30
2022-12-14T05:57:53.380Z,27.40
2022-12-14T06:00:21.742Z,29.25
2022-12-14T06:02:49.409Z,28.10
2022-12-14T06:05:17.333Z,26.65
2022-12-14T06:07:45.012Z,28.08
2022-12-14T06:10:12.550Z,28.13
2022-12-14T06:12:41.541Z,27.42
2022-12-14T06:15:09.739Z,27.35
2022-12-14T06:17:37.504Z,24.08
2022-12-14T06:20:06.369Z,28.48
2022-12-14T06:22:34.302Z,26.92
2022-12-14T06:25:04.424Z,28.58
2022-12-14T06:27:35.011Z,28.67
2022-12-14T06:30:04.036Z,27.35
2022-12-14T06:32:31.719Z,30.40
2022-12-14T06:34:59.316Z,30.48
2022-12-14T06:37:26.894Z,30.08
2022-12-14T06:39:54.954Z,30.75
2022-12-14T06:42:26.256Z,33.45
2022-12-14T06:44:54.107Z,29.67
2022-12-14T06:47:23.448Z,32.75
2022-12-14T06:49:51.528Z,29.50
2022-12-14T06:52:24.968Z,29.05
2022-12-14T06:54:54.440Z,30.20
2022-12-14T06:57:21.981Z,33.60
2022-12-14T06:59:49.667Z,27.48
2022-12-14T07:02:21.179Z,30.75
2022-12-14T07:04:50.557Z,30.77
2022-12-14T07:07:18.747Z,27.65
2022-12-14T07:09:48.459Z,30.40
2022-12-14T07:12:16.410Z,33.27
2022-12-14T07:14:43.951Z,36.60
2022-12-14T07:17:11.454Z,34.50
2022-12-14T07:19:38.987Z,36.08
2022-12-14T07:22:07.983Z,34.05
2022-12-14T07:24:35.599Z,34.35
2022-12-14T07:27:03.307Z,37.58
2022-12-14T07:29:34.859Z,30.88
2022-12-14T07:32:02.754Z,33.07
2022-12-14T07:34:30.343Z,33.13
2022-12-14T07:36:57.851Z,31.65
2022-12-14T07:39:27.722Z,36.88
2022-12-14T07:41:56.188Z,32.88
2022-12-14T07:44:23.719Z,34.08
2022-12-14T07:46:51.354Z,35.97
2022-12-14T07:49:18.978Z,32.38
2022-12-14T07:51:46.711Z,37.20
2022-12-14T07:54:15.447Z,34.05
2022-12-14T07:56:44.641Z,31.98
2022-12-14T07:59:15.914Z,33.72
2022-12-14T08:01:44.279Z,33.63
2022-12-14T08:04:13.948Z,37.00
2022-12-14T08:06:42.182Z,31.15
2022-12-14T08:09:12.652Z,36.10
2022-12-14T08:11:40.716Z,34.20
2022-12-14T08:14:13.516Z,35.53
2022-12-14T08:19:08.672Z,37.78
2022-12-14T08:21:36.211Z,31.80
2022-12-14T08:24:03.822Z,33.90
2022-12-14T08:26:35.548Z,35.78
2022-12-14T08:29:04.596Z,32.72
2022-12-14T08:31:34.672Z,37.90
2022-12-14T08:34:02.977Z,38.83
2022-12-14T08:36:32.726Z,38.22
2022-12-14T08:39:02.096Z,38.53
2022-12-14T08:41:30.120Z,34.90
2022-12-14T08:43:59.036Z,36.60
2022-12-14T08:46:28.733Z,38.17
2022-12-14T08:48:58.158Z,37.03
2022-12-14T08:51:26.622Z,38.30
2022-12-14T08:53:55.110Z,37.30
2022-12-14T08:56:25.233Z,36.93
2022-12-14T08:58:53.590Z,37.95
2022-12-14T09:01:28.186Z,41.45
2022-12-14T09:04:05.377Z,37.72
2022-12-14T09:06:34.901Z,40.65
2022-12-14T09:09:02.491Z,41.70
2022-12-14T09:11:30.145Z,39.85
2022-12-14T09:13:58.101Z,41.15
2022-12-14T09:16:27.140Z,43.75
2022-12-14T09:18:55.548Z,42.17
2022-12-14T09:21:25.006Z,41.78
2022-12-14T09:23:57.506Z,37.78
2022-12-14T09:26:27.204Z,46.70
2022-12-14T09:28:57.421Z,44.35
2022-12-14T09:31:27.283Z,38.80
2022-12-14T09:33:56.616Z,49.70
2022-12-14T09:36:29.124Z,42.88
2022-12-14T09:38:57.745Z,43.85
2022-12-14T09:41:36.297Z,39.00
2022-12-14T09:44:13.132Z,40.85
2022-12-14T09:46:57.198Z,47.15
2022-12-14T09:49:29.064Z,39.42
2022-12-14T09:52:01.205Z,43.90
2022-12-14T09:54:32.930Z,40.20
2022-12-14T09:57:05.722Z,40.38
2022-12-14T10:02:31.384Z,40.33
2022-12-14T10:05:24.743Z,42.97
2022-12-14T10:08:02.823Z,38.00
2022-12-14T10:10:41.231Z,41.25
2022-12-14T10:13:20.209Z,38.72
2022-12-14T10:15:58.001Z,40.38
2022-12-14T10:19:00.707Z,39.42
2022-12-14T10:21:42.255Z,38.92
2022-12-14T10:24:18.493Z,41.33
2022-12-14T10:26:51.245Z,44.45
2022-12-14T10:32:00.094Z,38.85
2022-12-14T10:34:30.804Z,39.40
2022-12-14T10:37:10.202Z,40.60
2022-12-14T10:39:49.604Z,42.55
2022-12-14T10:42:23.142Z,40.53
2022-12-14T10:45:39.575Z,39.88
2022-12-14T10:47:53.561Z,38.95
2022-12-14T10:50:30.337Z,39.33
2022-12-14T10:52:59.527Z,39.45
2022-12-14T10:55:31.908Z,41.67
2022-12-14T10:57:59.432Z,39.67
2022-12-14T11:00:27.168Z,37.20
2022-12-14T11:02:56.768Z,34.83
2022-12-14T11:05:36.930Z,36.67
2022-12-14T11:08:06.648Z,35.22
2022-12-14T11:10:39.249Z,35.47
2022-12-14T11:13:16.098Z,34.55
2022-12-14T11:15:45.559Z,36.05
2022-12-14T11:18:28.083Z,33.75
2022-12-14T11:20:57.712Z,34.33
2022-12-14T11:23:27.628Z,32.03
2022-12-14T11:26:00.179Z,32.92
2022-12-14T11:28:37.587Z,34.63
2022-12-14T11:31:08.525Z,32.28
2022-12-14T11:33:50.191Z,33.85
2022-12-14T11:36:25.582Z,35.53
2022-12-14T11:38:57.441Z,37.33
2022-12-14T11:41:30.104Z,37.87
2022-12-14T11:44:06.821Z,38.33
2022-12-14T11:46:46.668Z,36.85
2022-12-14T11:49:27.172Z,33.55
2022-12-14T11:51:56.643Z,36.45
2022-12-14T11:54:24.185Z,35.53
2022-12-14T11:56:57.516Z,33.05
2022-12-14T11:59:29.943Z,36.35
2022-12-14T12:01:57.771Z,33.90
2022-12-14T12:04:26.191Z,34.42
2022-12-14T12:06:55.654Z,33.78
2022-12-14T12:09:31.149Z,34.47
2022-12-14T12:12:00.139Z,32.15
2022-12-14T12:14:34.133Z,31.05
2022-12-14T12:17:02.352Z,35.83
2022-12-14T12:19:34.554Z,32.78
2022-12-14T12:22:03.473Z,31.15
2022-12-14T12:24:41.682Z,29.17
2022-12-14T12:27:19.712Z,31.65
2022-12-14T12:29:51.389Z,30.80
2022-12-14T12:32:23.375Z,31.05
2022-12-14T12:35:01.403Z,28.65
2022-12-14T12:37:38.038Z,27.67
2022-12-14T12:40:15.987Z,30.58
2022-12-14T12:42:49.534Z,29.42
2022-12-14T12:45:21.839Z,27.30
2022-12-14T12:47:53.266Z,29.02
2022-12-14T12:50:23.803Z,29.55
2022-12-14T12:53:03.226Z,31.77
2022-12-14T12:55:36.628Z,28.30
2022-12-14T12:58:09.785Z,28.10
2022-12-14T13:00:39.785Z,28.08
2022-12-14T13:03:11.579Z,28.35
2022-12-14T13:05:47.076Z,27.93
2022-12-14T13:08:23.695Z,27.85
2022-12-14T13:11:25.520Z,32.20
2022-12-14T13:13:46.453Z,32.72
2022-12-14T13:16:26.265Z,25.33
2022-12-14T13:19:19.085Z,30.60
2022-12-14T13:21:51.888Z,26.17
2022-12-14T13:24:21.941Z,29.63
2022-12-14T13:27:12.266Z,28.30
2022-12-14T13:30:00.450Z,27.42
2022-12-14T13:32:43.594Z,23.52
2022-12-14T13:35:30.128Z,28.17
2022-12-14T13:38:18.904Z,26.65
2022-12-14T13:41:19.538Z,26.38
2022-12-14T13:44:05.499Z,30.20
2022-12-14T13:46:34.817Z,30.70
2022-12-14T13:49:08.182Z,33.25
2022-12-14T13:51:39.056Z,42.45
2022-12-14T13:54:17.132Z,58.55
2022-12-14T13:56:45.213Z,38.72
2022-12-14T13:59:29.032Z,33.80
2022-12-14T14:01:59.896Z,31.20
2022-12-14T14:04:29.395Z,30.48
2022-12-14T14:06:58.015Z,26.58
2022-12-14T14:10:01.045Z,29.75
2022-12-14T14:12:40.591Z,30.75
2022-12-14T14:15:26.574Z,28.00
2022-12-14T14:18:02.631Z,28.10
2022-12-14T14:20:38.239Z,27.55
2022-12-14T14:23:29.809Z,27.05
2022-12-14T14:26:17.423Z,27.00
2022-12-14T14:28:49.468Z,27.10
2022-12-14T14:31:17.388Z,29.83
2022-12-14T14:33:50.163Z,33.08
2022-12-14T14:36:23.450Z,27.88
2022-12-14T14:38:51.908Z,29.23
2022-12-14T14:41:24.432Z,29.38
2022-12-14T14:43:54.653Z,31.92
2022-12-14T14:46:34.632Z,30.30
2022-12-14T14:49:04.429Z,30.40
2022-12-14T14:51:36.359Z,29.95
2022-12-14T14:57:34.235Z,29.38
2022-12-14T15:00:03.755Z,30.05
2022-12-14T15:02:34.311Z,32.63
2022-12-14T15:05:33.112Z,27.88
2022-12-14T15:07:55.828Z,25.40
2022-12-14T15:10:29.573Z,28.48
2022-12-14T15:13:02.521Z,28.67
2022-12-14T15:15:36.626Z,28.50
2022-12-14T15:18:23.795Z,27.10
2022-12-14T15:20:58.948Z,27.77
2022-12-14T15:23:31.743Z,27.10
2022-12-14T15:26:02.646Z,26.42
2022-12-14T15:28:32.205Z,35.40
2022-12-14T15:31:00.289Z,31.00
2022-12-14T15:33:32.238Z,29.25
2022-12-14T15:36:05.619Z,29.77
2022-12-14T15:38:34.929Z,31.33
2022-12-14T15:41:04.876Z,31.05
2022-12-14T15:43:33.891Z,32.95
2022-12-14T15:46:03.647Z,32.13
2022-12-14T15:48:34.268Z,34.80
2022-12-14T15:51:06.139Z,31.73
2022-12-14T15:53:36.444Z,33.08
2022-12-14T15:56:17.542Z,33.13
2022-12-14T15:58:45.835Z,32.58
2022-12-14T16:01:18.895Z,33.30
2022-12-14T16:03:49.878Z,34.00
2022-12-14T16:06:19.765Z,34.55
2022-12-14T16:08:53.120Z,33.13
2022-12-14T16:11:26.564Z,30.88
2022-12-14T16:13:57.897Z,33.85
2022-12-14T16:16:25.773Z,33.85
2022-12-14T16:18:54.281Z,34.05
2022-12-14T16:21:32.176Z,35.35
2022-12-14T16:24:01.055Z,38.25
2022-12-14T16:26:36.179Z,107.70
2022-12-14T16:29:09.799Z,78.82
2022-12-14T16:31:38.434Z,46.53
2022-12-14T16:34:14.972Z,39.85
2022-12-14T16:36:56.276Z,34.17
2022-12-14T16:39:37.839Z,34.63
2022-12-14T16:42:07.056Z,36.88
2022-12-14T16:44:40.712Z,37.65
2022-12-14T16:47:28.535Z,34.75
2022-12-14T16:49:59.542Z,38.00
2022-12-14T16:52:31.386Z,35.60
2022-12-14T16:55:14.131Z,33.43
2022-12-14T16:57:52.458Z,32.90
2022-12-14T17:00:23.389Z,31.48
2022-12-14T17:02:57.527Z,37.13
2022-12-14T17:05:30.143Z,33.47
2022-12-14T17:07:59.064Z,35.50
2022-12-14T17:10:27.100Z,39.67
2022-12-14T17:12:57.598Z,33.42
2022-12-14T17:15:26.730Z,30.52
2022-12-14T17:17:56.041Z,31.65
2022-12-14T17:20:26.202Z,35.42
2022-12-14T17:22:55.063Z,31.10
2022-12-14T17:25:23.946Z,32.25
2022-12-14T17:27:51.673Z,34.15
2022-12-14T17:30:21.643Z,33.72
2022-12-14T17:32:51.437Z,33.38
2022-12-14T17:35:21.360Z,33.42
2022-12-14T17:37:49.536Z,33.50
2022-12-14T17:40:17.887Z,53.90
2022-12-14T17:42:52.023Z,70.90
2022-12-14T17:45:22.754Z,52.50
2022-12-14T17:47:50.510Z,36.75
2022-12-14T17:50:19.448Z,31.48
2022-12-14T17:52:48.058Z,28.52
2022-12-14T17:55:18.621Z,27.23
2022-12-14T17:57:47.914Z,27.65
2022-12-14T18:00:38.614Z,26.58
2022-12-14T18:03:07.037Z,26.23
2022-12-14T18:05:34.994Z,27.80
2022-12-14T18:08:02.523Z,26.40
2022-12-14T18:10:30.138Z,24.67
2022-12-14T18:12:59.211Z,28.50
2022-12-14T18:15:28.905Z,28.85
2022-12-14T18:17:57.043Z,25.90
2022-12-14T18:20:25.072Z,28.20
2022-12-14T18:22:53.290Z,26.42
2022-12-14T18:25:31.565Z,25.45
2022-12-14T18:28:01.213Z,26.92
2022-12-14T18:30:35.048Z,26.35
2022-12-14T18:33:06.547Z,25.33
2022-12-14T18:35:34.831Z,23.40
2022-12-14T18:38:02.391Z,25.88
2022-12-14T18:40:30.758Z,26.10
2022-12-14T18:42:59.754Z,24.83
2022-12-14T18:45:29.833Z,26.83
2022-12-14T18:47:59.074Z,25.77
2022-12-14T18:50:26.640Z,42.83
2022-12-14T18:52:55.522Z,77.65
2022-12-14T18:55:25.054Z,35.50
2022-12-14T18:57:55.422Z,27.92
2022-12-14T19:00:26.495Z,29.77
2022-12-14T19:02:58.280Z,30.00
2022-12-14T19:05:26.622Z,28.42
2022-12-14T19:07:54.183Z,28.70
2022-12-14T19:10:24.111Z,30.45
2022-12-14T19:12:51.864Z,29.08
2022-12-14T19:15:21.771Z,30.73
2022-12-14T19:17:53.165Z,30.88
2022-12-14T19:20:24.479Z,28.15
2022-12-14T19:22:52.609Z,27.92
2022-12-14T19:25:21.670Z,31.20
2022-12-14T19:30:37.405Z,31.27
2022-12-14T19:33:06.396Z,28.83
2022-12-14T19:35:33.966Z,31.05
2022-12-14T19:38:01.610Z,32.80
2022-12-14T19:40:29.241Z,28.17
2022-12-14T19:42:56.980Z,28.30
2022-12-14T19:45:24.551Z,28.52
2022-12-14T19:47:52.151Z,48.83
2022-12-14T19:50:21.370Z,54.60
2022-12-14T19:52:49.069Z,36.00
2022-12-14T19:55:18.240Z,30.52
2022-12-14T19:57:45.898Z,33.47
2022-12-14T20:00:14.391Z,30.83
2022-12-14T20:02:42.203Z,29.75
2022-12-14T20:05:10.304Z,28.52
2022-12-14T20:07:43.855Z,34.45
2022-12-14T20:10:25.917Z,31.08
2022-12-14T20:12:56.362Z,32.65
2022-12-14T20:15:24.052Z,32.88
2022-12-14T20:17:52.922Z,30.20
2022-12-14T20:20:23.830Z,31.13
2022-12-14T20:22:55.743Z,31.35
2022-12-14T20:25:26.361Z,29.60
2022-12-14T20:27:53.950Z,30.23
2022-12-14T20:30:21.577Z,33.35
2022-12-14T20:32:49.539Z,31.40
2022-12-14T20:35:18.661Z,33.65
2022-12-14T20:37:46.449Z,34.30
2022-12-14T20:40:15.672Z,33.05
2022-12-14T20:42:43.229Z,41.58
2022-12-14T20:45:11.175Z,33.58
2022-12-14T20:47:38.697Z,34.70
2022-12-14T20:50:06.843Z,37.00
2022-12-14T20:52:34.391Z,34.03
2022-12-14T20:55:01.941Z,35.95
2022-12-14T20:57:33.006Z,37.47
2022-12-14T21:00:00.736Z,33.08
2022-12-14T21:02:28.793Z,37.13
2022-12-14T21:04:56.485Z,35.60
2022-12-14T21:07:26.239Z,31.58
2022-12-14T21:09:54.343Z,32.65
2022-12-14T21:12:20.963Z,37.80
2022-12-14T21:14:53.060Z,33.70
2022-12-14T21:17:22.982Z,37.55
2022-12-14T21:19:51.365Z,32.63
2022-12-14T21:22:21.405Z,35.90
2022-12-14T21:25:06.074Z,33.92
2022-12-14T21:27:37.999Z,34.70
2022-12-14T21:30:09.068Z,32.25
2022-12-14T21:32:37.543Z,33.10
2022-12-14T21:35:06.361Z,34.58
2022-12-14T21:37:33.985Z,33.90
2022-12-14T21:40:03.646Z,32.70
2022-12-14T21:42:30.369Z,36.17
2022-12-14T21:44:57.895Z,30.60
2022-12-14T21:47:29.531Z,34.10
2022-12-14T21:49:57.373Z,29.90
2022-12-14T21:52:27.698Z,33.33
2022-12-14T21:54:55.825Z,33.47
2022-12-14T21:57:42.907Z,32.35
2022-12-14T22:00:17.900Z,31.90
2022-12-14T22:02:46.954Z,33.97
2022-12-14T22:05:14.565Z,34.80
2022-12-14T22:07:42.163Z,34.38
2022-12-14T22:10:09.769Z,39.17
2022-12-14T22:12:37.332Z,41.05
2022-12-14T22:15:05.372Z,34.83
2022-12-14T22:17:32.958Z,36.30
2022-12-14T22:20:01.853Z,35.78
2022-12-14T22:22:29.403Z,31.05
2022-12-14T22:24:57.039Z,30.50
2022-12-14T22:27:24.544Z,31.58
2022-12-14T22:29:52.134Z,33.75
2022-12-14T22:32:19.789Z,35.13
2022-12-14T22:34:47.405Z,33.08
2022-12-14T22:37:16.604Z,31.60
2022-12-14T22:39:44.256Z,36.45
2022-12-14T22:42:15.395Z,32.55
2022-12-14T22:44:42.929Z,32.30
2022-12-14T22:47:10.483Z,34.35
2022-12-14T22:49:38.015Z,34.25
2022-12-14T22:52:05.570Z,34.17
2022-12-14T22:54:34.573Z,34.58
2022-12-14T22:57:06.133Z,35.65
2022-12-14T22:59:37.855Z,37.47
2022-12-14T23:02:05.960Z,39.50
2022-12-14T23:04:33.879Z,37.05
2022-12-14T23:07:01.481Z,37.83
2022-12-14T23:09:46.748Z,32.05
2022-12-14T23:12:33.101Z,32.05
2022-12-14T23:15:18.417Z,35.92
2022-12-14T23:18:03.676Z,33.00
2022-12-14T23:20:48.844Z,32.15
2022-12-14T23:23:34.702Z,31.95
2022-12-14T23:26:21.024Z,31.77
2022-12-14T23:29:07.532Z,35.00
2022-12-14T23:31:53.101Z,36.13
2022-12-14T23:34:38.232Z,33.67
2022-12-14T23:37:23.642Z,33.63
2022-12-14T23:40:09.050Z,34.42
2022-12-14T23:42:54.343Z,34.65
2022-12-14T23:45:41.029Z,34.03
2022-12-14T23:48:26.327Z,37.67
2022-12-14T23:51:11.580Z,36.75
2022-12-14T23:53:56.915Z,33.90
2022-12-14T23:56:42.016Z,34.65
2022-12-14T23:59:31.865Z,32.20
